PWSweather.com
Personal Weather Stations
Station Observations
TARRYHILL
Tarrytown, NY 10591

Tarrytown, NY 10591

Lat: 41.05185, Lon: -73.85296

Elevation: 341

Station Type: Davis Vantage Vue

Latest ConditionsUpdated 11:00:00 AM EDT Friday, Sep 30, 2016
Currently Today's Max Today's Min Today's Average
Temperature 58.0°F14.4°C 58.0°F14.4°C 53.8°F12.1°C 55.4°F13.0°C
Dew Point 52.2°F11.2°C 52.2°F11.2°C 48.6°F9.2°C 50.1°F10.1°C
Winds 2.3 mph NNW3.7 kmh NNW 4.6 mph NNW7.4 kmh NNW - 1.6 mph 2.6 kmh
Wind Gusts 4.6 mph7.4 kmh 10.4 mph16.7 kmh - -
Humidity 81% 85% 79% 82%
Pressure 30.33 in1027.1 mb 30.39 in1029.1 mb 30.32 in1026.8 mb -
Hour Temp Dew Point Humidity Winds Wind Gusts Pressure Precip Precip Rate Daily Precip Total
11:00 AM 58.0°F14.4°C 52.2°F11.2°C 81% 2.3 mph NNW3.7 kmh NNW 4.6 mph7.4 kmh 30.33 in1027.1 mb - 0.00 in0.0 mm 0.00 in0.0 mm
10:50 AM 58.0°F14.4°C 52.2°F11.2°C 81% 1.2 mph SW1.9 kmh SW 1.2 mph1.9 kmh 30.34 in1027.4 mb - 0.00 in0.0 mm 0.00 in0.0 mm
10:40 AM 57.8°F14.3°C 52.0°F11.1°C 81% 2.3 mph N3.7 kmh N 3.5 mph5.6 kmh 30.34 in1027.4 mb - 0.00 in0.0 mm 0.00 in0.0 mm
10:30 AM 57.7°F14.3°C 52.0°F11.1°C 81% 1.2 mph W1.9 kmh W 2.3 mph3.7 kmh 30.34 in1027.4 mb - 0.00 in0.0 mm 0.00 in0.0 mm
10:20 AM 57.7°F14.3°C 52.2°F11.2°C 82% 1.2 mph NW1.9 kmh NW 3.5 mph5.6 kmh 30.34 in1027.4 mb - 0.00 in0.0 mm 0.00 in0.0 mm
10:10 AM 57.5°F14.2°C 51.7°F10.9°C 81% 1.2 mph E1.9 kmh E 2.3 mph3.7 kmh 30.33 in1027.1 mb - 0.00 in0.0 mm 0.00 in0.0 mm
10:00 AM 57.3°F14.1°C 51.9°F11.1°C 82% 1.2 mph N1.9 kmh N 3.5 mph5.6 kmh 30.33 in1027.1 mb - 0.00 in0.0 mm 0.00 in0.0 mm
09:50 AM 57.2°F14.0°C 51.8°F11.0°C 82% 1.2 mph S1.9 kmh S 3.5 mph5.6 kmh 30.33 in1027.1 mb - 0.00 in0.0 mm 0.00 in0.0 mm
09:40 AM 57.0°F13.9°C 51.6°F10.9°C 82% 1.2 mph ESE1.9 kmh ESE 3.5 mph5.6 kmh 30.33 in1027.1 mb - 0.00 in0.0 mm 0.00 in0.0 mm
09:30 AM 56.9°F13.8°C 51.4°F10.8°C 82% 2.3 mph WNW3.7 kmh WNW 5.8 mph9.3 kmh 30.33 in1027.1 mb - 0.00 in0.0 mm 0.00 in0.0 mm
09:20 AM 56.7°F13.7°C 51.3°F10.7°C 82% 1.2 mph W1.9 kmh W 3.5 mph5.6 kmh 30.33 in1027.1 mb - 0.00 in0.0 mm 0.00 in0.0 mm
09:10 AM 56.5°F13.6°C 51.1°F10.6°C 82% 3.5 mph N5.6 kmh N 4.6 mph7.4 kmh 30.33 in1027.1 mb - 0.00 in0.0 mm 0.00 in0.0 mm
09:00 AM 56.2°F13.4°C 50.8°F10.4°C 82% 3.5 mph N5.6 kmh N 4.6 mph7.4 kmh 30.33 in1027.1 mb - 0.00 in0.0 mm 0.00 in0.0 mm
08:50 AM 56.0°F13.3°C 50.9°F10.5°C 83% 1.2 mph W1.9 kmh W 4.6 mph7.4 kmh 30.33 in1027.1 mb - 0.00 in0.0 mm 0.00 in0.0 mm
08:40 AM 55.7°F13.2°C 50.6°F10.3°C 83% 1.2 mph WSW1.9 kmh WSW 4.6 mph7.4 kmh 30.33 in1027.1 mb - 0.00 in0.0 mm 0.00 in0.0 mm
08:30 AM 55.4°F13.0°C 50.6°F10.3°C 84% 2.3 mph NW3.7 kmh NW 3.5 mph5.6 kmh 30.34 in1027.4 mb - 0.00 in0.0 mm 0.00 in0.0 mm
08:20 AM 55.1°F12.8°C 50.7°F10.4°C 85% Calm Calm 2.3 mph3.7 kmh 30.33 in1027.1 mb - 0.00 in0.0 mm 0.00 in0.0 mm
08:10 AM 55.1°F12.8°C 50.7°F10.4°C 85% 1.2 mph WNW1.9 kmh WNW 4.6 mph7.4 kmh 30.33 in1027.1 mb - 0.00 in0.0 mm 0.00 in0.0 mm
08:00 AM 55.4°F13.0°C 50.4°F10.2°C 83% 2.3 mph WNW3.7 kmh WNW 3.5 mph5.6 kmh 30.32 in1026.8 mb - 0.00 in0.0 mm 0.00 in0.0 mm
07:50 AM 55.6°F13.1°C 50.2°F10.1°C 82% 2.3 mph NNE3.7 kmh NNE 3.5 mph5.6 kmh 30.33 in1027.1 mb - 0.00 in0.0 mm 0.00 in0.0 mm
07:40 AM 55.5°F13.1°C 50.1°F10.1°C 82% 2.3 mph NW3.7 kmh NW 6.9 mph11.1 kmh 30.33 in1027.1 mb - 0.00 in0.0 mm 0.00 in0.0 mm
07:30 AM 55.3°F12.9°C 49.9°F9.9°C 82% Calm Calm 2.3 mph3.7 kmh 30.34 in1027.4 mb - 0.00 in0.0 mm 0.00 in0.0 mm
07:20 AM 55.0°F12.8°C 49.9°F9.9°C 83% 1.2 mph N1.9 kmh N 3.5 mph5.6 kmh 30.33 in1027.1 mb - 0.00 in0.0 mm 0.00 in0.0 mm
07:10 AM 54.9°F12.7°C 49.8°F9.9°C 83% 1.2 mph NW1.9 kmh NW 3.5 mph5.6 kmh 30.33 in1027.1 mb - 0.00 in0.0 mm 0.00 in0.0 mm
07:00 AM 54.8°F12.7°C 49.7°F9.8°C 83% 2.3 mph NE3.7 kmh NE 4.6 mph7.4 kmh 30.33 in1027.1 mb - 0.00 in0.0 mm 0.00 in0.0 mm
06:50 AM 54.8°F12.7°C 50.1°F10.1°C 84% 2.3 mph NW3.7 kmh NW 3.5 mph5.6 kmh 30.33 in1027.1 mb - 0.00 in0.0 mm 0.00 in0.0 mm
06:40 AM 55.2°F12.9°C 49.8°F9.9°C 82% 1.2 mph N1.9 kmh N 1.2 mph1.9 kmh 30.33 in1027.1 mb - 0.00 in0.0 mm 0.00 in0.0 mm
06:30 AM 55.4°F13.0°C 49.7°F9.8°C 81% 1.2 mph WNW1.9 kmh WNW 2.3 mph3.7 kmh 30.33 in1027.1 mb - 0.00 in0.0 mm 0.00 in0.0 mm
06:20 AM 55.3°F12.9°C 49.6°F9.8°C 81% 1.2 mph N1.9 kmh N 6.9 mph11.1 kmh 30.32 in1026.8 mb - 0.00 in0.0 mm 0.00 in0.0 mm
06:10 AM 55.3°F12.9°C 49.6°F9.8°C 81% 1.2 mph S1.9 kmh S 3.5 mph5.6 kmh 30.32 in1026.8 mb - 0.00 in0.0 mm 0.00 in0.0 mm
06:00 AM 55.3°F12.9°C 49.6°F9.8°C 81% 1.2 mph SE1.9 kmh SE 3.5 mph5.6 kmh 30.33 in1027.1 mb - 0.00 in0.0 mm 0.00 in0.0 mm
05:50 AM 55.3°F12.9°C 49.6°F9.8°C 81% 1.2 mph S1.9 kmh S 3.5 mph5.6 kmh 30.33 in1027.1 mb - 0.00 in0.0 mm 0.00 in0.0 mm
05:40 AM 55.3°F12.9°C 49.6°F9.8°C 81% 1.2 mph SE1.9 kmh SE 3.5 mph5.6 kmh 30.33 in1027.1 mb - 0.00 in0.0 mm 0.00 in0.0 mm
05:30 AM 55.3°F12.9°C 49.6°F9.8°C 81% 2.3 mph NNE3.7 kmh NNE 6.9 mph11.1 kmh 30.33 in1027.1 mb - 0.00 in0.0 mm 0.00 in0.0 mm
05:20 AM 55.3°F12.9°C 49.6°F9.8°C 81% 1.2 mph N1.9 kmh N 8.1 mph13.0 kmh 30.33 in1027.1 mb - 0.00 in0.0 mm 0.00 in0.0 mm
05:10 AM 55.3°F12.9°C 49.6°F9.8°C 81% Calm Calm 8.1 mph13.0 kmh 30.33 in1027.1 mb - 0.00 in0.0 mm 0.00 in0.0 mm
05:00 AM 55.3°F12.9°C 49.6°F9.8°C 81% 1.2 mph NNW1.9 kmh NNW 10.4 mph16.7 kmh 30.33 in1027.1 mb - 0.00 in0.0 mm 0.00 in0.0 mm
04:50 AM 55.3°F12.9°C 49.6°F9.8°C 81% 2.3 mph WNW3.7 kmh WNW 3.5 mph5.6 kmh 30.34 in1027.4 mb - 0.00 in0.0 mm 0.00 in0.0 mm
04:40 AM 55.3°F12.9°C 49.9°F9.9°C 82% 1.2 mph SSW1.9 kmh SSW 3.5 mph5.6 kmh 30.34 in1027.4 mb - 0.00 in0.0 mm 0.00 in0.0 mm
04:30 AM 55.2°F12.9°C 49.8°F9.9°C 82% 1.2 mph NW1.9 kmh NW 9.2 mph14.8 kmh 30.34 in1027.4 mb - 0.00 in0.0 mm 0.00 in0.0 mm
04:20 AM 55.2°F12.9°C 49.8°F9.9°C 82% 1.2 mph NW1.9 kmh NW 3.5 mph5.6 kmh 30.33 in1027.1 mb - 0.00 in0.0 mm 0.00 in0.0 mm
04:10 AM 55.2°F12.9°C 49.8°F9.9°C 82% 3.5 mph NE5.6 kmh NE 10.4 mph16.7 kmh 30.33 in1027.1 mb - 0.00 in0.0 mm 0.00 in0.0 mm
04:00 AM 55.2°F12.9°C 49.8°F9.9°C 82% 1.2 mph S1.9 kmh S 8.1 mph13.0 kmh 30.34 in1027.4 mb - 0.00 in0.0 mm 0.00 in0.0 mm
03:50 AM 55.2°F12.9°C 49.8°F9.9°C 82% 2.3 mph N3.7 kmh N 4.6 mph7.4 kmh 30.34 in1027.4 mb - 0.00 in0.0 mm 0.00 in0.0 mm
03:40 AM 55.1°F12.8°C 49.7°F9.8°C 82% 2.3 mph NE3.7 kmh NE 2.3 mph3.7 kmh 30.34 in1027.4 mb - 0.00 in0.0 mm 0.00 in0.0 mm
03:30 AM 55.1°F12.8°C 50.0°F10.0°C 83% 1.2 mph N1.9 kmh N 2.3 mph3.7 kmh 30.34 in1027.4 mb - 0.00 in0.0 mm 0.00 in0.0 mm
03:20 AM 55.0°F12.8°C 49.9°F9.9°C 83% 1.2 mph WNW1.9 kmh WNW 3.5 mph5.6 kmh 30.34 in1027.4 mb - 0.00 in0.0 mm 0.00 in0.0 mm
03:10 AM 54.9°F12.7°C 49.8°F9.9°C 83% 3.5 mph W5.6 kmh W 4.6 mph7.4 kmh 30.35 in1027.8 mb - 0.00 in0.0 mm 0.00 in0.0 mm
03:00 AM 54.7°F12.6°C 49.7°F9.8°C 83% 2.3 mph NNW3.7 kmh NNW 3.5 mph5.6 kmh 30.34 in1027.4 mb - 0.00 in0.0 mm 0.00 in0.0 mm
02:50 AM 54.6°F12.6°C 49.5°F9.7°C 83% Calm Calm 1.2 mph1.9 kmh 30.35 in1027.8 mb - 0.00 in0.0 mm 0.00 in0.0 mm
02:40 AM 54.5°F12.5°C 49.4°F9.7°C 83% 2.3 mph NW3.7 kmh NW 6.9 mph11.1 kmh 30.35 in1027.8 mb - 0.00 in0.0 mm 0.00 in0.0 mm
02:30 AM 54.3°F12.4°C 49.6°F9.8°C 84% 1.2 mph NE1.9 kmh NE 2.3 mph3.7 kmh 30.36 in1028.1 mb - 0.00 in0.0 mm 0.00 in0.0 mm
02:20 AM 54.2°F12.3°C 49.5°F9.7°C 84% 2.3 mph NW3.7 kmh NW 2.3 mph3.7 kmh 30.36 in1028.1 mb - 0.00 in0.0 mm 0.00 in0.0 mm
02:10 AM 54.1°F12.3°C 49.4°F9.7°C 84% 3.5 mph NW5.6 kmh NW 3.5 mph5.6 kmh 30.36 in1028.1 mb - 0.00 in0.0 mm 0.00 in0.0 mm
02:00 AM 53.9°F12.2°C 49.5°F9.7°C 85% 4.6 mph NNW7.4 kmh NNW 5.8 mph9.3 kmh 30.36 in1028.1 mb - 0.00 in0.0 mm 0.00 in0.0 mm
01:50 AM 53.8°F12.1°C 49.4°F9.7°C 85% Calm Calm 1.2 mph1.9 kmh 30.36 in1028.1 mb - 0.00 in0.0 mm 0.00 in0.0 mm
01:40 AM 53.8°F12.1°C 49.4°F9.7°C 85% 2.3 mph N3.7 kmh N 6.9 mph11.1 kmh 30.37 in1028.4 mb - 0.00 in0.0 mm 0.00 in0.0 mm
01:30 AM 53.8°F12.1°C 49.4°F9.7°C 85% Calm Calm 3.5 mph5.6 kmh 30.38 in1028.8 mb - 0.00 in0.0 mm 0.00 in0.0 mm
01:20 AM 53.9°F12.2°C 49.2°F9.6°C 84% 1.2 mph NW1.9 kmh NW 4.6 mph7.4 kmh 30.37 in1028.4 mb - 0.00 in0.0 mm 0.00 in0.0 mm
01:10 AM 54.1°F12.3°C 49.4°F9.7°C 84% Calm Calm 1.2 mph1.9 kmh 30.38 in1028.8 mb - 0.00 in0.0 mm 0.00 in0.0 mm
01:00 AM 54.1°F12.3°C 49.1°F9.5°C 83% 1.2 mph E1.9 kmh E 1.2 mph1.9 kmh 30.38 in1028.8 mb - 0.00 in0.0 mm 0.00 in0.0 mm
12:50 AM 54.2°F12.3°C 49.1°F9.5°C 83% 3.5 mph NNE5.6 kmh NNE 5.8 mph9.3 kmh 30.39 in1029.1 mb - 0.00 in0.0 mm 0.00 in0.0 mm
12:40 AM 54.3°F12.4°C 49.2°F9.6°C 83% 1.2 mph NW1.9 kmh NW 3.5 mph5.6 kmh 30.39 in1029.1 mb - 0.00 in0.0 mm 0.00 in0.0 mm
12:30 AM 54.6°F12.6°C 49.2°F9.6°C 82% 1.2 mph ENE1.9 kmh ENE 2.3 mph3.7 kmh 30.39 in1029.1 mb - 0.00 in0.0 mm 0.00 in0.0 mm
12:20 AM 54.9°F12.7°C 48.9°F9.4°C 80% 2.3 mph E3.7 kmh E 3.5 mph5.6 kmh 30.38 in1028.8 mb - 0.00 in0.0 mm 0.00 in0.0 mm
12:10 AM 55.0°F12.8°C 48.6°F9.2°C 79% 1.2 mph SW1.9 kmh SW 3.5 mph5.6 kmh 30.38 in1028.8 mb - 0.00 in0.0 mm 0.00 in0.0 mm
12:00 AM 55.0°F12.8°C 48.6°F9.2°C 79% 1.2 mph SSW1.9 kmh SSW 4.6 mph7.4 kmh 30.38 in1028.8 mb - 0.00 in0.0 mm 0.00 in0.0 mm